sensor_id;sensor_type;location;lat;lon;timestamp;temperature;humidity
3896;DHT22;1963;48.804;8.358;2022-12-29T18:29:38;10.00;99.90
3896;DHT22;1963;48.804;8.358;2022-12-29T18:40:12;10.00;99.90
3896;DHT22;1963;48.804;8.358;2022-12-29T18:42:46;9.90;99.90
3896;DHT22;1963;48.804;8.358;2022-12-29T18:45:24;9.90;99.90
3896;DHT22;1963;48.804;8.358;2022-12-29T18:47:52;9.80;99.90
3896;DHT22;1963;48.804;8.358;2022-12-29T18:50:24;9.80;99.90
3896;DHT22;1963;48.804;8.358;2022-12-29T18:52:59;9.70;99.90
3896;DHT22;1963;48.804;8.358;2022-12-29T18:55:43;9.80;99.90
3896;DHT22;1963;48.804;8.358;2022-12-29T18:58:39;9.70;99.90
3896;DHT22;1963;48.804;8.358;2022-12-29T19:01:21;9.60;99.90
3896;DHT22;1963;48.804;8.358;2022-12-29T19:04:39;9.70;99.90
3896;DHT22;1963;48.804;8.358;2022-12-29T19:07:57;9.60;99.90
3896;DHT22;1963;48.804;8.358;2022-12-29T19:11:09;9.70;99.90
3896;DHT22;1963;48.804;8.358;2022-12-29T19:17:29;9.70;99.90
3896;DHT22;1963;48.804;8.358;2022-12-29T19:20:05;9.60;99.90
3896;DHT22;1963;48.804;8.358;2022-12-29T19:22:33;9.60;99.90
3896;DHT22;1963;48.804;8.358;2022-12-29T19:25:02;9.60;99.90
3896;DHT22;1963;48.804;8.358;2022-12-29T19:27:30;9.60;99.90
3896;DHT22;1963;48.804;8.358;2022-12-29T19:29:59;9.60;99.90
3896;DHT22;1963;48.804;8.358;2022-12-29T19:32:29;9.50;99.90
3896;DHT22;1963;48.804;8.358;2022-12-29T19:34:58;9.50;99.90
3896;DHT22;1963;48.804;8.358;2022-12-29T19:37:26;9.50;99.90
3896;DHT22;1963;48.804;8.358;2022-12-29T19:39:55;9.50;99.90
3896;DHT22;1963;48.804;8.358;2022-12-29T19:42:23;9.50;99.90
3896;DHT22;1963;48.804;8.358;2022-12-29T19:44:51;9.50;99.90
3896;DHT22;1963;48.804;8.358;2022-12-29T19:47:20;9.40;99.90
3896;DHT22;1963;48.804;8.358;2022-12-29T19:49:59;9.40;99.90
3896;DHT22;1963;48.804;8.358;2022-12-29T19:52:28;9.40;99.90
3896;DHT22;1963;48.804;8.358;2022-12-29T19:54:58;9.50;99.90
3896;DHT22;1963;48.804;8.358;2022-12-29T19:57:26;9.50;99.90
3896;DHT22;1963;48.804;8.358;2022-12-29T19:59:56;9.50;99.90
3896;DHT22;1963;48.804;8.358;2022-12-29T20:02:35;9.50;99.90
3896;DHT22;1963;48.804;8.358;2022-12-29T20:05:07;9.40;99.90
3896;DHT22;1963;48.804;8.358;2022-12-29T20:07:52;9.40;99.90
3896;DHT22;1963;48.804;8.358;2022-12-29T20:14:18;9.40;99.90
3896;DHT22;1963;48.804;8.358;2022-12-29T20:16:50;9.40;99.90
3896;DHT22;1963;48.804;8.358;2022-12-29T20:19:37;9.30;99.90
3896;DHT22;1963;48.804;8.358;2022-12-29T20:22:12;9.30;99.90
3896;DHT22;1963;48.804;8.358;2022-12-29T20:24:41;9.40;99.90
3896;DHT22;1963;48.804;8.358;2022-12-29T20:27:16;9.30;99.90
3896;DHT22;1963;48.804;8.358;2022-12-29T20:29:44;9.20;99.90
3896;DHT22;1963;48.804;8.358;2022-12-29T20:32:14;9.20;99.90
3896;DHT22;1963;48.804;8.358;2022-12-29T20:34:43;9.20;99.90
3896;DHT22;1963;48.804;8.358;2022-12-29T20:37:15;9.10;99.90
3896;DHT22;1963;48.804;8.358;2022-12-29T20:39:43;9.10;99.90
3896;DHT22;1963;48.804;8.358;2022-12-29T20:42:12;9.10;99.90
3896;DHT22;1963;48.804;8.358;2022-12-29T20:44:40;9.10;99.90
3896;DHT22;1963;48.804;8.358;2022-12-29T20:47:09;9.00;99.90
3896;DHT22;1963;48.804;8.358;2022-12-29T20:49:37;9.00;99.90
3896;DHT22;1963;48.804;8.358;2022-12-29T20:52:05;9.00;99.90
3896;DHT22;1963;48.804;8.358;2022-12-29T20:54:35;9.00;99.90
3896;DHT22;1963;48.804;8.358;2022-12-29T20:57:06;8.90;99.90
3896;DHT22;1963;48.804;8.358;2022-12-29T20:59:34;8.90;99.90
3896;DHT22;1963;48.804;8.358;2022-12-29T21:02:03;8.90;99.90
3896;DHT22;1963;48.804;8.358;2022-12-29T21:04:31;8.90;99.90
3896;DHT22;1963;48.804;8.358;2022-12-29T21:07:20;8.80;99.90
3896;DHT22;1963;48.804;8.358;2022-12-29T21:09:50;8.80;99.90
3896;DHT22;1963;48.804;8.358;2022-12-29T21:12:20;8.90;99.90
3896;DHT22;1963;48.804;8.358;2022-12-29T21:14:48;8.80;99.90
3896;DHT22;1963;48.804;8.358;2022-12-29T21:17:16;8.70;99.90
3896;DHT22;1963;48.804;8.358;2022-12-29T21:19:48;8.80;99.90
3896;DHT22;1963;48.804;8.358;2022-12-29T21:22:17;8.80;99.90
3896;DHT22;1963;48.804;8.358;2022-12-29T21:24:45;8.70;99.90
3896;DHT22;1963;48.804;8.358;2022-12-29T21:27:15;8.80;99.90
3896;DHT22;1963;48.804;8.358;2022-12-29T21:29:44;8.80;99.90
3896;DHT22;1963;48.804;8.358;2022-12-29T21:32:12;8.90;99.90
3896;DHT22;1963;48.804;8.358;2022-12-29T21:34:40;8.90;99.90
3896;DHT22;1963;48.804;8.358;2022-12-29T21:37:09;8.90;99.90
3896;DHT22;1963;48.804;8.358;2022-12-29T21:39:38;8.80;99.90
3896;DHT22;1963;48.804;8.358;2022-12-29T21:42:07;8.90;99.90
3896;DHT22;1963;48.804;8.358;2022-12-29T21:44:36;8.80;99.90
3896;DHT22;1963;48.804;8.358;2022-12-29T21:47:22;8.80;99.90
3896;DHT22;1963;48.804;8.358;2022-12-29T21:49:50;8.80;99.90
3896;DHT22;1963;48.804;8.358;2022-12-29T21:52:18;8.80;99.90
3896;DHT22;1963;48.804;8.358;2022-12-29T21:54:47;8.70;99.90
3896;DHT22;1963;48.804;8.358;2022-12-29T21:57:30;8.70;99.90
3896;DHT22;1963;48.804;8.358;2022-12-29T22:00:28;8.70;99.90
3896;DHT22;1963;48.804;8.358;2022-12-29T22:03:14;8.70;99.90
3896;DHT22;1963;48.804;8.358;2022-12-29T22:05:59;8.70;99.90
3896;DHT22;1963;48.804;8.358;2022-12-29T22:08:46;8.60;99.90
3896;DHT22;1963;48.804;8.358;2022-12-29T22:11:33;8.60;99.90
3896;DHT22;1963;48.804;8.358;2022-12-29T22:14:19;8.60;99.90
3896;DHT22;1963;48.804;8.358;2022-12-29T22:16:50;8.60;99.90
3896;DHT22;1963;48.804;8.358;2022-12-29T22:19:18;8.70;99.90
3896;DHT22;1963;48.804;8.358;2022-12-29T22:21:47;8.70;99.90
3896;DHT22;1963;48.804;8.358;2022-12-29T22:24:15;8.70;99.90
3896;DHT22;1963;48.804;8.358;2022-12-29T22:26:44;8.60;99.90
3896;DHT22;1963;48.804;8.358;2022-12-29T22:29:12;8.70;99.90
3896;DHT22;1963;48.804;8.358;2022-12-29T22:31:41;8.70;99.90
3896;DHT22;1963;48.804;8.358;2022-12-29T22:34:11;8.70;99.90
3896;DHT22;1963;48.804;8.358;2022-12-29T22:36:45;8.60;99.90
3896;DHT22;1963;48.804;8.358;2022-12-29T22:39:14;8.50;99.90
3896;DHT22;1963;48.804;8.358;2022-12-29T22:41:42;8.50;99.90
3896;DHT22;1963;48.804;8.358;2022-12-29T22:44:11;8.50;99.90
3896;DHT22;1963;48.804;8.358;2022-12-29T22:46:39;8.60;99.90
3896;DHT22;1963;48.804;8.358;2022-12-29T22:49:08;8.50;99.90
3896;DHT22;1963;48.804;8.358;2022-12-29T22:51:38;8.50;99.90
3896;DHT22;1963;48.804;8.358;2022-12-29T22:54:07;8.60;99.90
3896;DHT22;1963;48.804;8.358;2022-12-29T22:56:35;8.50;99.90
3896;DHT22;1963;48.804;8.358;2022-12-29T22:59:08;8.50;99.90
3896;DHT22;1963;48.804;8.358;2022-12-29T23:01:41;8.50;99.90
3896;DHT22;1963;48.804;8.358;2022-12-29T23:04:10;8.50;99.90
3896;DHT22;1963;48.804;8.358;2022-12-29T23:07:00;8.40;99.90
3896;DHT22;1963;48.804;8.358;2022-12-29T23:09:28;8.40;99.90
3896;DHT22;1963;48.804;8.358;2022-12-29T23:11:57;8.40;99.90
3896;DHT22;1963;48.804;8.358;2022-12-29T23:14:26;8.50;99.90
3896;DHT22;1963;48.804;8.358;2022-12-29T23:16:55;8.40;99.90
3896;DHT22;1963;48.804;8.358;2022-12-29T23:19:24;8.50;99.90
3896;DHT22;1963;48.804;8.358;2022-12-29T23:21:55;8.50;99.90
3896;DHT22;1963;48.804;8.358;2022-12-29T23:24:25;8.50;99.90
3896;DHT22;1963;48.804;8.358;2022-12-29T23:26:54;8.50;99.90
3896;DHT22;1963;48.804;8.358;2022-12-29T23:29:22;8.50;99.90
3896;DHT22;1963;48.804;8.358;2022-12-29T23:31:50;8.60;99.90
3896;DHT22;1963;48.804;8.358;2022-12-29T23:34:19;8.50;99.90
3896;DHT22;1963;48.804;8.358;2022-12-29T23:36:47;8.50;99.90
3896;DHT22;1963;48.804;8.358;2022-12-29T23:39:18;8.50;99.90
3896;DHT22;1963;48.804;8.358;2022-12-29T23:41:49;8.50;99.90
3896;DHT22;1963;48.804;8.358;2022-12-29T23:44:17;8.50;99.90
3896;DHT22;1963;48.804;8.358;2022-12-29T23:46:46;8.50;99.90
3896;DHT22;1963;48.804;8.358;2022-12-29T23:49:14;8.50;99.90
3896;DHT22;1963;48.804;8.358;2022-12-29T23:51:43;8.50;99.90
3896;DHT22;1963;48.804;8.358;2022-12-29T23:54:12;8.50;99.90
3896;DHT22;1963;48.804;8.358;2022-12-29T23:56:40;8.40;99.90
3896;DHT22;1963;48.804;8.358;2022-12-29T23:59:10;8.40;99.90
